sensor_id;sensor_type;location;lat;lon;timestamp;temperature;humidity
26964;DHT22;14521;48.148;-1.656;2023-08-30T00:02:31;23.20;89.70
26964;DHT22;14521;48.148;-1.656;2023-08-30T00:05:53;23.20;90.00
26964;DHT22;14521;48.148;-1.656;2023-08-30T00:09:17;23.20;90.00
26964;DHT22;14521;48.148;-1.656;2023-08-30T00:12:40;23.20;90.00
26964;DHT22;14521;48.148;-1.656;2023-08-30T00:16:02;23.20;90.00
26964;DHT22;14521;48.148;-1.656;2023-08-30T00:19:25;23.20;90.00
26964;DHT22;14521;48.148;-1.656;2023-08-30T00:22:47;23.20;90.00
26964;DHT22;14521;48.148;-1.656;2023-08-30T00:26:13;23.20;90.00
26964;DHT22;14521;48.148;-1.656;2023-08-30T00:29:35;23.20;90.00
26964;DHT22;14521;48.148;-1.656;2023-08-30T00:32:57;23.20;90.10
26964;DHT22;14521;48.148;-1.656;2023-08-30T00:36:20;23.20;90.00
26964;DHT22;14521;48.148;-1.656;2023-08-30T00:39:42;23.20;90.00
26964;DHT22;14521;48.148;-1.656;2023-08-30T00:43:04;23.20;90.10
26964;DHT22;14521;48.148;-1.656;2023-08-30T00:46:27;23.20;90.50
26964;DHT22;14521;48.148;-1.656;2023-08-30T00:49:50;23.20;90.20
26964;DHT22;14521;48.148;-1.656;2023-08-30T00:53:13;23.20;90.20
26964;DHT22;14521;48.148;-1.656;2023-08-30T00:56:35;23.20;90.20
26964;DHT22;14521;48.148;-1.656;2023-08-30T00:59:58;23.20;90.20
26964;DHT22;14521;48.148;-1.656;2023-08-30T01:03:20;23.20;90.30
26964;DHT22;14521;48.148;-1.656;2023-08-30T01:06:43;23.20;90.30
26964;DHT22;14521;48.148;-1.656;2023-08-30T01:10:06;23.20;90.20
26964;DHT22;14521;48.148;-1.656;2023-08-30T01:13:30;23.20;90.40
26964;DHT22;14521;48.148;-1.656;2023-08-30T01:16:53;23.20;90.30
26964;DHT22;14521;48.148;-1.656;2023-08-30T01:20:19;23.10;90.30
26964;DHT22;14521;48.148;-1.656;2023-08-30T01:23:51;23.20;90.40
26964;DHT22;14521;48.148;-1.656;2023-08-30T01:27:17;23.20;90.40
26964;DHT22;14521;48.148;-1.656;2023-08-30T01:30:41;23.20;90.40
26964;DHT22;14521;48.148;-1.656;2023-08-30T01:34:05;23.20;90.80
26964;DHT22;14521;48.148;-1.656;2023-08-30T01:37:28;23.10;90.40
26964;DHT22;14521;48.148;-1.656;2023-08-30T01:40:51;23.20;90.50
26964;DHT22;14521;48.148;-1.656;2023-08-30T01:44:14;23.20;90.50
26964;DHT22;14521;48.148;-1.656;2023-08-30T01:47:40;23.20;90.50
26964;DHT22;14521;48.148;-1.656;2023-08-30T01:51:03;23.10;90.50
26964;DHT22;14521;48.148;-1.656;2023-08-30T01:54:26;23.10;90.60
26964;DHT22;14521;48.148;-1.656;2023-08-30T01:57:49;23.10;90.50
26964;DHT22;14521;48.148;-1.656;2023-08-30T02:01:12;23.10;90.60
26964;DHT22;14521;48.148;-1.656;2023-08-30T02:04:34;23.00;90.50
26964;DHT22;14521;48.148;-1.656;2023-08-30T02:08:16;23.10;90.50
26964;DHT22;14521;48.148;-1.656;2023-08-30T02:11:39;23.10;90.60
26964;DHT22;14521;48.148;-1.656;2023-08-30T02:15:07;23.10;90.60
26964;DHT22;14521;48.148;-1.656;2023-08-30T02:18:29;23.00;90.50
26964;DHT22;14521;48.148;-1.656;2023-08-30T02:21:54;23.00;90.50
26964;DHT22;14521;48.148;-1.656;2023-08-30T02:25:16;23.10;90.50
26964;DHT22;14521;48.148;-1.656;2023-08-30T02:28:38;23.00;90.50
26964;DHT22;14521;48.148;-1.656;2023-08-30T02:32:01;23.00;90.40
26964;DHT22;14521;48.148;-1.656;2023-08-30T02:35:23;23.10;90.50
26964;DHT22;14521;48.148;-1.656;2023-08-30T02:38:45;23.10;90.40
26964;DHT22;14521;48.148;-1.656;2023-08-30T02:42:09;23.10;90.50
26964;DHT22;14521;48.148;-1.656;2023-08-30T02:45:32;23.10;90.40
26964;DHT22;14521;48.148;-1.656;2023-08-30T02:48:54;23.10;90.80
26964;DHT22;14521;48.148;-1.656;2023-08-30T02:52:18;23.10;90.40
26964;DHT22;14521;48.148;-1.656;2023-08-30T02:55:40;23.00;90.40
26964;DHT22;14521;48.148;-1.656;2023-08-30T02:59:02;22.90;90.50
26964;DHT22;14521;48.148;-1.656;2023-08-30T03:02:24;22.90;90.50
26964;DHT22;14521;48.148;-1.656;2023-08-30T03:05:47;22.90;90.60
26964;DHT22;14521;48.148;-1.656;2023-08-30T03:09:12;22.90;90.60
26964;DHT22;14521;48.148;-1.656;2023-08-30T03:12:34;22.90;90.60
26964;DHT22;14521;48.148;-1.656;2023-08-30T03:15:58;22.90;90.60
26964;DHT22;14521;48.148;-1.656;2023-08-30T03:19:22;22.90;90.50
26964;DHT22;14521;48.148;-1.656;2023-08-30T03:22:45;23.00;90.50
26964;DHT22;14521;48.148;-1.656;2023-08-30T03:29:31;23.00;90.50
26964;DHT22;14521;48.148;-1.656;2023-08-30T03:32:54;23.00;90.40
26964;DHT22;14521;48.148;-1.656;2023-08-30T03:36:35;23.00;90.30
26964;DHT22;14521;48.148;-1.656;2023-08-30T03:39:57;23.10;90.50
26964;DHT22;14521;48.148;-1.656;2023-08-30T03:43:20;23.10;90.50
26964;DHT22;14521;48.148;-1.656;2023-08-30T03:46:42;23.10;90.50
26964;DHT22;14521;48.148;-1.656;2023-08-30T03:50:05;23.10;90.50
26964;DHT22;14521;48.148;-1.656;2023-08-30T03:53:28;23.10;90.50
26964;DHT22;14521;48.148;-1.656;2023-08-30T03:56:53;23.10;90.80
26964;DHT22;14521;48.148;-1.656;2023-08-30T04:00:16;23.10;90.40
26964;DHT22;14521;48.148;-1.656;2023-08-30T04:03:38;23.00;90.40
26964;DHT22;14521;48.148;-1.656;2023-08-30T04:07:00;23.00;90.50
26964;DHT22;14521;48.148;-1.656;2023-08-30T04:10:22;23.00;90.50
26964;DHT22;14521;48.148;-1.656;2023-08-30T04:13:45;23.00;90.50
26964;DHT22;14521;48.148;-1.656;2023-08-30T04:17:07;23.00;90.50
26964;DHT22;14521;48.148;-1.656;2023-08-30T04:20:29;23.10;90.50
26964;DHT22;14521;48.148;-1.656;2023-08-30T04:23:52;23.00;90.80
26964;DHT22;14521;48.148;-1.656;2023-08-30T04:27:14;23.00;90.50
26964;DHT22;14521;48.148;-1.656;2023-08-30T04:30:37;23.00;90.50
26964;DHT22;14521;48.148;-1.656;2023-08-30T04:34:00;23.00;90.50
26964;DHT22;14521;48.148;-1.656;2023-08-30T04:37:23;23.00;90.50
26964;DHT22;14521;48.148;-1.656;2023-08-30T04:40:45;23.00;90.50
26964;DHT22;14521;48.148;-1.656;2023-08-30T04:44:09;23.00;90.50
26964;DHT22;14521;48.148;-1.656;2023-08-30T04:47:32;23.00;90.50
26964;DHT22;14521;48.148;-1.656;2023-08-30T04:51:01;23.00;90.50
26964;DHT22;14521;48.148;-1.656;2023-08-30T04:54:25;22.90;90.50
26964;DHT22;14521;48.148;-1.656;2023-08-30T04:57:47;23.00;90.50
26964;DHT22;14521;48.148;-1.656;2023-08-30T05:01:11;23.00;90.50
26964;DHT22;14521;48.148;-1.656;2023-08-30T05:04:37;23.00;90.50
26964;DHT22;14521;48.148;-1.656;2023-08-30T05:08:00;23.00;90.50
26964;DHT22;14521;48.148;-1.656;2023-08-30T05:11:23;23.00;90.50
26964;DHT22;14521;48.148;-1.656;2023-08-30T05:14:45;22.90;90.50
26964;DHT22;14521;48.148;-1.656;2023-08-30T05:18:07;23.00;90.50
26964;DHT22;14521;48.148;-1.656;2023-08-30T05:21:30;23.00;90.50
26964;DHT22;14521;48.148;-1.656;2023-08-30T05:24:52;23.10;90.50
26964;DHT22;14521;48.148;-1.656;2023-08-30T05:28:15;23.00;90.40
26964;DHT22;14521;48.148;-1.656;2023-08-30T05:31:37;23.00;90.50
26964;DHT22;14521;48.148;-1.656;2023-08-30T05:35:20;23.00;90.50
26964;DHT22;14521;48.148;-1.656;2023-08-30T05:38:42;23.00;90.70
26964;DHT22;14521;48.148;-1.656;2023-08-30T05:42:28;23.00;90.70
26964;DHT22;14521;48.148;-1.656;2023-08-30T05:45:51;23.00;90.70
26964;DHT22;14521;48.148;-1.656;2023-08-30T05:49:14;23.00;90.70
26964;DHT22;14521;48.148;-1.656;2023-08-30T05:52:36;23.00;90.50
26964;DHT22;14521;48.148;-1.656;2023-08-30T05:56:03;23.00;90.60
26964;DHT22;14521;48.148;-1.656;2023-08-30T05:59:26;23.00;90.50
26964;DHT22;14521;48.148;-1.656;2023-08-30T06:02:48;23.00;90.50
26964;DHT22;14521;48.148;-1.656;2023-08-30T06:06:13;23.00;90.50
26964;DHT22;14521;48.148;-1.656;2023-08-30T06:09:36;23.00;90.60
26964;DHT22;14521;48.148;-1.656;2023-08-30T06:12:58;23.00;90.60
26964;DHT22;14521;48.148;-1.656;2023-08-30T06:16:20;23.10;90.70
26964;DHT22;14521;48.148;-1.656;2023-08-30T06:19:43;23.00;90.80
26964;DHT22;14521;48.148;-1.656;2023-08-30T06:23:05;22.90;90.90
26964;DHT22;14521;48.148;-1.656;2023-08-30T06:26:27;22.90;91.30
26964;DHT22;14521;48.148;-1.656;2023-08-30T06:29:50;23.00;91.70
26964;DHT22;14521;48.148;-1.656;2023-08-30T06:33:12;22.90;90.90
26964;DHT22;14521;48.148;-1.656;2023-08-30T06:36:35;22.90;91.20
26964;DHT22;14521;48.148;-1.656;2023-08-30T06:39:57;23.00;91.20
26964;DHT22;14521;48.148;-1.656;2023-08-30T06:43:20;23.10;90.50
26964;DHT22;14521;48.148;-1.656;2023-08-30T06:46:42;23.10;90.80
26964;DHT22;14521;48.148;-1.656;2023-08-30T06:50:05;23.10;91.30
26964;DHT22;14521;48.148;-1.656;2023-08-30T06:53:27;23.20;91.30
26964;DHT22;14521;48.148;-1.656;2023-08-30T06:57:02;23.20;91.10
26964;DHT22;14521;48.148;-1.656;2023-08-30T07:00:24;23.20;91.20
26964;DHT22;14521;48.148;-1.656;2023-08-30T07:03:47;23.20;91.10
26964;DHT22;14521;48.148;-1.656;2023-08-30T07:07:09;23.20;91.00
26964;DHT22;14521;48.148;-1.656;2023-08-30T07:10:33;23.20;90.90
26964;DHT22;14521;48.148;-1.656;2023-08-30T07:14:14;23.30;90.80
26964;DHT22;14521;48.148;-1.656;2023-08-30T07:17:36;23.30;90.80
26964;DHT22;14521;48.148;-1.656;2023-08-30T07:21:14;23.30;90.80
26964;DHT22;14521;48.148;-1.656;2023-08-30T07:24:36;23.30;90.80
26964;DHT22;14521;48.148;-1.656;2023-08-30T07:28:02;23.30;90.80
26964;DHT22;14521;48.148;-1.656;2023-08-30T07:31:24;23.30;90.70
26964;DHT22;14521;48.148;-1.656;2023-08-30T07:34:47;23.30;90.60
26964;DHT22;14521;48.148;-1.656;2023-08-30T07:38:09;23.30;90.60
26964;DHT22;14521;48.148;-1.656;2023-08-30T07:41:34;23.30;90.60
26964;DHT22;14521;48.148;-1.656;2023-08-30T07:44:56;23.30;90.60
26964;DHT22;14521;48.148;-1.656;2023-08-30T07:48:18;23.30;90.60
26964;DHT22;14521;48.148;-1.656;2023-08-30T07:51:41;23.30;90.60
26964;DHT22;14521;48.148;-1.656;2023-08-30T07:55:03;23.30;90.60
26964;DHT22;14521;48.148;-1.656;2023-08-30T07:58:26;23.30;90.60
26964;DHT22;14521;48.148;-1.656;2023-08-30T08:01:48;23.30;90.60
26964;DHT22;14521;48.148;-1.656;2023-08-30T08:05:10;23.30;90.80
26964;DHT22;14521;48.148;-1.656;2023-08-30T08:08:32;23.30;90.70
26964;DHT22;14521;48.148;-1.656;2023-08-30T08:11:55;23.30;90.90
26964;DHT22;14521;48.148;-1.656;2023-08-30T08:15:18;23.30;90.50
26964;DHT22;14521;48.148;-1.656;2023-08-30T08:18:40;23.30;90.40
26964;DHT22;14521;48.148;-1.656;2023-08-30T08:22:03;23.30;90.30
26964;DHT22;14521;48.148;-1.656;2023-08-30T08:25:25;23.40;90.40
26964;DHT22;14521;48.148;-1.656;2023-08-30T08:28:48;23.40;90.30
26964;DHT22;14521;48.148;-1.656;2023-08-30T08:32:12;23.40;90.40
26964;DHT22;14521;48.148;-1.656;2023-08-30T08:35:35;23.40;90.30
26964;DHT22;14521;48.148;-1.656;2023-08-30T08:38:57;23.40;90.30
26964;DHT22;14521;48.148;-1.656;2023-08-30T08:42:20;23.30;90.10
26964;DHT22;14521;48.148;-1.656;2023-08-30T08:45:43;23.30;90.30
26964;DHT22;14521;48.148;-1.656;2023-08-30T08:49:11;23.40;90.20
26964;DHT22;14521;48.148;-1.656;2023-08-30T08:52:34;23.40;90.20
26964;DHT22;14521;48.148;-1.656;2023-08-30T08:56:12;23.40;90.30
26964;DHT22;14521;48.148;-1.656;2023-08-30T08:59:35;23.40;90.40
26964;DHT22;14521;48.148;-1.656;2023-08-30T09:02:58;23.40;90.10
26964;DHT22;14521;48.148;-1.656;2023-08-30T09:06:21;23.40;90.00
26964;DHT22;14521;48.148;-1.656;2023-08-30T09:09:45;23.40;90.00
26964;DHT22;14521;48.148;-1.656;2023-08-30T09:13:08;23.40;89.80
26964;DHT22;14521;48.148;-1.656;2023-08-30T09:16:31;23.40;89.70
26964;DHT22;14521;48.148;-1.656;2023-08-30T09:19:53;23.30;90.00
26964;DHT22;14521;48.148;-1.656;2023-08-30T09:23:26;23.30;90.00
26964;DHT22;14521;48.148;-1.656;2023-08-30T09:26:50;23.30;90.10
26964;DHT22;14521;48.148;-1.656;2023-08-30T09:30:14;23.30;90.00
26964;DHT22;14521;48.148;-1.656;2023-08-30T09:33:36;23.40;89.80
26964;DHT22;14521;48.148;-1.656;2023-08-30T09:36:58;23.40;89.60
26964;DHT22;14521;48.148;-1.656;2023-08-30T09:40:26;23.40;89.30
26964;DHT22;14521;48.148;-1.656;2023-08-30T09:43:48;23.40;89.00
26964;DHT22;14521;48.148;-1.656;2023-08-30T09:47:24;23.40;88.90
26964;DHT22;14521;48.148;-1.656;2023-08-30T09:50:53;23.40;88.90
26964;DHT22;14521;48.148;-1.656;2023-08-30T09:54:18;23.40;88.70
26964;DHT22;14521;48.148;-1.656;2023-08-30T09:58:02;23.40;88.50
26964;DHT22;14521;48.148;-1.656;2023-08-30T10:01:27;23.40;88.70
26964;DHT22;14521;48.148;-1.656;2023-08-30T10:04:50;23.40;87.60
26964;DHT22;14521;48.148;-1.656;2023-08-30T10:08:14;23.40;88.10
26964;DHT22;14521;48.148;-1.656;2023-08-30T10:11:37;23.30;87.90
26964;DHT22;14521;48.148;-1.656;2023-08-30T10:15:00;23.40;87.90
26964;DHT22;14521;48.148;-1.656;2023-08-30T10:18:25;23.40;88.20
26964;DHT22;14521;48.148;-1.656;2023-08-30T10:25:22;23.40;88.50
26964;DHT22;14521;48.148;-1.656;2023-08-30T10:28:46;23.50;88.50
26964;DHT22;14521;48.148;-1.656;2023-08-30T10:32:08;23.50;87.80
26964;DHT22;14521;48.148;-1.656;2023-08-30T10:35:30;23.50;87.20
26964;DHT22;14521;48.148;-1.656;2023-08-30T10:38:54;23.50;87.80
26964;DHT22;14521;48.148;-1.656;2023-08-30T10:42:21;23.50;87.30
26964;DHT22;14521;48.148;-1.656;2023-08-30T10:45:44;23.40;88.20
26964;DHT22;14521;48.148;-1.656;2023-08-30T10:49:12;23.40;87.50
26964;DHT22;14521;48.148;-1.656;2023-08-30T10:52:37;23.50;87.70
26964;DHT22;14521;48.148;-1.656;2023-08-30T10:56:09;23.50;87.50
26964;DHT22;14521;48.148;-1.656;2023-08-30T10:59:31;23.50;87.50
26964;DHT22;14521;48.148;-1.656;2023-08-30T11:02:54;23.50;87.50
26964;DHT22;14521;48.148;-1.656;2023-08-30T11:06:16;23.50;87.40
26964;DHT22;14521;48.148;-1.656;2023-08-30T11:09:39;23.50;86.90
26964;DHT22;14521;48.148;-1.656;2023-08-30T11:13:02;23.50;87.00
26964;DHT22;14521;48.148;-1.656;2023-08-30T11:16:25;23.60;87.10
26964;DHT22;14521;48.148;-1.656;2023-08-30T11:19:51;23.60;86.70
26964;DHT22;14521;48.148;-1.656;2023-08-30T11:23:13;23.60;87.60
26964;DHT22;14521;48.148;-1.656;2023-08-30T11:26:36;23.60;86.80
26964;DHT22;14521;48.148;-1.656;2023-08-30T11:30:00;23.50;86.70
26964;DHT22;14521;48.148;-1.656;2023-08-30T11:33:25;23.50;86.50
26964;DHT22;14521;48.148;-1.656;2023-08-30T11:36:47;23.50;86.70
26964;DHT22;14521;48.148;-1.656;2023-08-30T11:40:11;23.50;86.80
26964;DHT22;14521;48.148;-1.656;2023-08-30T11:43:34;23.50;86.80
26964;DHT22;14521;48.148;-1.656;2023-08-30T11:46:59;23.50;86.90
26964;DHT22;14521;48.148;-1.656;2023-08-30T11:50:22;23.50;86.70
26964;DHT22;14521;48.148;-1.656;2023-08-30T11:53:47;23.50;86.50
26964;DHT22;14521;48.148;-1.656;2023-08-30T11:57:09;23.50;86.30
26964;DHT22;14521;48.148;-1.656;2023-08-30T12:00:33;23.50;86.20
26964;DHT22;14521;48.148;-1.656;2023-08-30T12:03:56;23.50;86.00
26964;DHT22;14521;48.148;-1.656;2023-08-30T12:07:22;23.50;86.10
26964;DHT22;14521;48.148;-1.656;2023-08-30T12:10:46;23.50;87.10
26964;DHT22;14521;48.148;-1.656;2023-08-30T12:14:08;23.50;86.70
26964;DHT22;14521;48.148;-1.656;2023-08-30T12:17:30;23.60;87.10
26964;DHT22;14521;48.148;-1.656;2023-08-30T12:20:53;23.60;88.00
26964;DHT22;14521;48.148;-1.656;2023-08-30T12:24:16;23.60;87.80
26964;DHT22;14521;48.148;-1.656;2023-08-30T12:27:39;23.60;87.30
26964;DHT22;14521;48.148;-1.656;2023-08-30T12:31:02;23.60;87.80
26964;DHT22;14521;48.148;-1.656;2023-08-30T12:34:26;23.60;87.80
26964;DHT22;14521;48.148;-1.656;2023-08-30T12:37:48;23.60;87.30
26964;DHT22;14521;48.148;-1.656;2023-08-30T12:41:10;23.50;87.30
26964;DHT22;14521;48.148;-1.656;2023-08-30T12:44:32;23.60;86.30
26964;DHT22;14521;48.148;-1.656;2023-08-30T12:47:55;23.60;86.50
26964;DHT22;14521;48.148;-1.656;2023-08-30T12:51:20;23.60;86.20
26964;DHT22;14521;48.148;-1.656;2023-08-30T12:54:42;23.60;86.40
26964;DHT22;14521;48.148;-1.656;2023-08-30T12:58:05;23.50;85.70
26964;DHT22;14521;48.148;-1.656;2023-08-30T13:01:27;23.50;86.50
26964;DHT22;14521;48.148;-1.656;2023-08-30T13:04:49;23.50;86.00
26964;DHT22;14521;48.148;-1.656;2023-08-30T13:08:11;23.60;85.70
26964;DHT22;14521;48.148;-1.656;2023-08-30T13:11:34;23.60;85.60
26964;DHT22;14521;48.148;-1.656;2023-08-30T13:14:56;23.70;85.20
26964;DHT22;14521;48.148;-1.656;2023-08-30T13:18:18;23.70;85.10
26964;DHT22;14521;48.148;-1.656;2023-08-30T13:21:41;23.70;85.10
26964;DHT22;14521;48.148;-1.656;2023-08-30T13:25:05;23.70;85.30
26964;DHT22;14521;48.148;-1.656;2023-08-30T13:28:27;23.70;85.30
26964;DHT22;14521;48.148;-1.656;2023-08-30T13:31:50;23.70;85.40
26964;DHT22;14521;48.148;-1.656;2023-08-30T13:35:12;23.70;85.60
26964;DHT22;14521;48.148;-1.656;2023-08-30T13:38:35;23.60;86.30
26964;DHT22;14521;48.148;-1.656;2023-08-30T13:41:57;23.70;86.20
26964;DHT22;14521;48.148;-1.656;2023-08-30T13:45:20;23.70;86.40
26964;DHT22;14521;48.148;-1.656;2023-08-30T13:48:42;23.70;86.20
26964;DHT22;14521;48.148;-1.656;2023-08-30T13:52:05;23.70;86.20
26964;DHT22;14521;48.148;-1.656;2023-08-30T13:55:27;23.70;86.10
26964;DHT22;14521;48.148;-1.656;2023-08-30T13:58:50;23.70;86.00
26964;DHT22;14521;48.148;-1.656;2023-08-30T14:02:12;23.70;86.40
26964;DHT22;14521;48.148;-1.656;2023-08-30T14:05:34;23.70;86.40
26964;DHT22;14521;48.148;-1.656;2023-08-30T14:08:57;23.70;86.60
26964;DHT22;14521;48.148;-1.656;2023-08-30T14:12:19;23.70;86.40
26964;DHT22;14521;48.148;-1.656;2023-08-30T14:15:41;23.70;86.20
26964;DHT22;14521;48.148;-1.656;2023-08-30T14:19:04;23.70;85.90
26964;DHT22;14521;48.148;-1.656;2023-08-30T14:22:27;23.70;85.60
26964;DHT22;14521;48.148;-1.656;2023-08-30T14:29:20;23.70;85.50
26964;DHT22;14521;48.148;-1.656;2023-08-30T14:32:43;23.70;85.50
26964;DHT22;14521;48.148;-1.656;2023-08-30T14:36:08;23.70;85.60
26964;DHT22;14521;48.148;-1.656;2023-08-30T14:39:32;23.70;85.60
26964;DHT22;14521;48.148;-1.656;2023-08-30T14:42:54;23.80;85.60
26964;DHT22;14521;48.148;-1.656;2023-08-30T14:46:17;23.70;85.80
26964;DHT22;14521;48.148;-1.656;2023-08-30T14:49:45;23.70;86.80
26964;DHT22;14521;48.148;-1.656;2023-08-30T14:53:08;23.70;87.10
26964;DHT22;14521;48.148;-1.656;2023-08-30T14:56:31;23.70;87.20
26964;DHT22;14521;48.148;-1.656;2023-08-30T14:59:53;23.80;86.60
26964;DHT22;14521;48.148;-1.656;2023-08-30T15:03:15;23.80;86.10
26964;DHT22;14521;48.148;-1.656;2023-08-30T15:06:38;23.70;86.20
26964;DHT22;14521;48.148;-1.656;2023-08-30T15:10:02;23.70;85.10
26964;DHT22;14521;48.148;-1.656;2023-08-30T15:13:24;23.70;83.90
26964;DHT22;14521;48.148;-1.656;2023-08-30T15:16:47;23.80;84.90
26964;DHT22;14521;48.148;-1.656;2023-08-30T15:20:09;23.70;86.20
26964;DHT22;14521;48.148;-1.656;2023-08-30T15:23:32;23.70;86.90
26964;DHT22;14521;48.148;-1.656;2023-08-30T15:26:54;23.70;86.00
26964;DHT22;14521;48.148;-1.656;2023-08-30T15:30:17;23.70;83.90
26964;DHT22;14521;48.148;-1.656;2023-08-30T15:33:41;23.70;84.10
26964;DHT22;14521;48.148;-1.656;2023-08-30T15:37:04;23.80;84.30
26964;DHT22;14521;48.148;-1.656;2023-08-30T15:40:26;23.80;84.60
26964;DHT22;14521;48.148;-1.656;2023-08-30T15:43:49;23.80;84.20
26964;DHT22;14521;48.148;-1.656;2023-08-30T15:47:11;23.80;83.80
26964;DHT22;14521;48.148;-1.656;2023-08-30T15:50:33;23.80;83.70
26964;DHT22;14521;48.148;-1.656;2023-08-30T15:53:55;23.80;83.50
26964;DHT22;14521;48.148;-1.656;2023-08-30T15:57:18;23.70;83.80
26964;DHT22;14521;48.148;-1.656;2023-08-30T16:00:40;23.70;85.20
26964;DHT22;14521;48.148;-1.656;2023-08-30T16:04:03;23.70;86.00
26964;DHT22;14521;48.148;-1.656;2023-08-30T16:07:26;23.70;85.70
26964;DHT22;14521;48.148;-1.656;2023-08-30T16:10:52;23.70;85.30
26964;DHT22;14521;48.148;-1.656;2023-08-30T16:14:15;23.70;86.30
26964;DHT22;14521;48.148;-1.656;2023-08-30T16:17:37;23.70;87.00
26964;DHT22;14521;48.148;-1.656;2023-08-30T16:21:00;23.80;86.20
26964;DHT22;14521;48.148;-1.656;2023-08-30T16:24:22;23.80;86.30
26964;DHT22;14521;48.148;-1.656;2023-08-30T16:27:49;23.80;86.10
26964;DHT22;14521;48.148;-1.656;2023-08-30T16:31:11;23.80;86.00
26964;DHT22;14521;48.148;-1.656;2023-08-30T16:34:36;23.80;85.90
26964;DHT22;14521;48.148;-1.656;2023-08-30T16:38:00;23.80;86.40
26964;DHT22;14521;48.148;-1.656;2023-08-30T16:41:23;23.90;87.40
26964;DHT22;14521;48.148;-1.656;2023-08-30T16:44:45;23.80;87.10
26964;DHT22;14521;48.148;-1.656;2023-08-30T16:48:07;23.80;87.40
26964;DHT22;14521;48.148;-1.656;2023-08-30T16:51:32;23.90;86.90
26964;DHT22;14521;48.148;-1.656;2023-08-30T16:54:55;23.90;86.10
26964;DHT22;14521;48.148;-1.656;2023-08-30T16:58:17;23.70;81.20
26964;DHT22;14521;48.148;-1.656;2023-08-30T17:01:40;23.50;81.60
26964;DHT22;14521;48.148;-1.656;2023-08-30T17:05:06;23.40;80.90
26964;DHT22;14521;48.148;-1.656;2023-08-30T17:08:31;23.40;83.50
26964;DHT22;14521;48.148;-1.656;2023-08-30T17:11:54;23.30;80.60
26964;DHT22;14521;48.148;-1.656;2023-08-30T17:15:17;23.30;80.50
26964;DHT22;14521;48.148;-1.656;2023-08-30T17:18:40;23.20;80.60
26964;DHT22;14521;48.148;-1.656;2023-08-30T17:22:03;22.90;80.30
26964;DHT22;14521;48.148;-1.656;2023-08-30T17:25:25;22.90;80.80
26964;DHT22;14521;48.148;-1.656;2023-08-30T17:28:48;22.80;81.30
26964;DHT22;14521;48.148;-1.656;2023-08-30T17:32:10;22.80;81.10
26964;DHT22;14521;48.148;-1.656;2023-08-30T17:35:34;22.70;81.60
26964;DHT22;14521;48.148;-1.656;2023-08-30T17:38:57;22.70;80.90
26964;DHT22;14521;48.148;-1.656;2023-08-30T17:42:19;22.70;80.80
26964;DHT22;14521;48.148;-1.656;2023-08-30T17:45:42;22.70;82.10
26964;DHT22;14521;48.148;-1.656;2023-08-30T17:49:04;22.70;81.40
26964;DHT22;14521;48.148;-1.656;2023-08-30T17:52:26;22.90;81.40
26964;DHT22;14521;48.148;-1.656;2023-08-30T17:55:59;22.80;81.00
26964;DHT22;14521;48.148;-1.656;2023-08-30T17:59:21;22.80;80.80
26964;DHT22;14521;48.148;-1.656;2023-08-30T18:02:47;22.70;80.40
26964;DHT22;14521;48.148;-1.656;2023-08-30T18:06:10;22.70;80.30
26964;DHT22;14521;48.148;-1.656;2023-08-30T18:09:36;22.70;80.90
26964;DHT22;14521;48.148;-1.656;2023-08-30T18:12:59;22.70;80.30
26964;DHT22;14521;48.148;-1.656;2023-08-30T18:16:21;22.70;80.40
26964;DHT22;14521;48.148;-1.656;2023-08-30T18:19:45;22.60;80.30
26964;DHT22;14521;48.148;-1.656;2023-08-30T18:23:08;22.60;80.40
26964;DHT22;14521;48.148;-1.656;2023-08-30T18:26:30;22.60;80.40
26964;DHT22;14521;48.148;-1.656;2023-08-30T18:29:52;22.60;79.80
26964;DHT22;14521;48.148;-1.656;2023-08-30T18:33:14;22.60;80.30
26964;DHT22;14521;48.148;-1.656;2023-08-30T18:36:37;22.50;80.00
26964;DHT22;14521;48.148;-1.656;2023-08-30T18:40:00;22.40;80.00
26964;DHT22;14521;48.148;-1.656;2023-08-30T18:43:23;22.40;80.10
26964;DHT22;14521;48.148;-1.656;2023-08-30T18:46:45;22.30;80.20
26964;DHT22;14521;48.148;-1.656;2023-08-30T18:50:25;22.30;80.40
26964;DHT22;14521;48.148;-1.656;2023-08-30T18:53:49;22.20;80.70
26964;DHT22;14521;48.148;-1.656;2023-08-30T18:57:12;22.20;80.80
26964;DHT22;14521;48.148;-1.656;2023-08-30T19:00:34;22.20;81.10
26964;DHT22;14521;48.148;-1.656;2023-08-30T19:03:58;22.10;81.10
26964;DHT22;14521;48.148;-1.656;2023-08-30T19:07:20;22.10;81.50
26964;DHT22;14521;48.148;-1.656;2023-08-30T19:10:43;22.10;81.90
26964;DHT22;14521;48.148;-1.656;2023-08-30T19:14:05;22.00;82.60
26964;DHT22;14521;48.148;-1.656;2023-08-30T19:17:27;22.40;82.80
26964;DHT22;14521;48.148;-1.656;2023-08-30T19:20:57;22.70;82.40
26964;DHT22;14521;48.148;-1.656;2023-08-30T19:24:19;22.90;82.30
26964;DHT22;14521;48.148;-1.656;2023-08-30T19:27:42;23.00;82.40
26964;DHT22;14521;48.148;-1.656;2023-08-30T19:31:05;23.10;83.20
26964;DHT22;14521;48.148;-1.656;2023-08-30T19:34:28;23.20;83.00
26964;DHT22;14521;48.148;-1.656;2023-08-30T19:37:50;23.30;83.50
26964;DHT22;14521;48.148;-1.656;2023-08-30T19:41:14;23.30;83.40
26964;DHT22;14521;48.148;-1.656;2023-08-30T19:44:37;23.30;83.00
26964;DHT22;14521;48.148;-1.656;2023-08-30T19:48:01;23.40;83.40
26964;DHT22;14521;48.148;-1.656;2023-08-30T19:51:25;23.40;84.20
26964;DHT22;14521;48.148;-1.656;2023-08-30T19:54:49;23.40;83.90
26964;DHT22;14521;48.148;-1.656;2023-08-30T19:58:12;23.50;83.90
26964;DHT22;14521;48.148;-1.656;2023-08-30T20:01:34;23.50;84.20
26964;DHT22;14521;48.148;-1.656;2023-08-30T20:04:58;23.50;83.70
26964;DHT22;14521;48.148;-1.656;2023-08-30T20:08:23;23.50;84.10
26964;DHT22;14521;48.148;-1.656;2023-08-30T20:11:45;23.50;83.80
26964;DHT22;14521;48.148;-1.656;2023-08-30T20:15:08;23.50;84.20
26964;DHT22;14521;48.148;-1.656;2023-08-30T20:18:31;23.50;84.20
26964;DHT22;14521;48.148;-1.656;2023-08-30T20:21:55;23.50;84.40
26964;DHT22;14521;48.148;-1.656;2023-08-30T20:25:19;23.50;84.10
26964;DHT22;14521;48.148;-1.656;2023-08-30T20:28:41;23.50;84.40
26964;DHT22;14521;48.148;-1.656;2023-08-30T20:32:04;23.60;84.70
26964;DHT22;14521;48.148;-1.656;2023-08-30T20:35:27;23.60;87.00
26964;DHT22;14521;48.148;-1.656;2023-08-30T20:38:50;23.60;84.80
26964;DHT22;14521;48.148;-1.656;2023-08-30T20:42:13;23.60;84.60
26964;DHT22;14521;48.148;-1.656;2023-08-30T20:45:35;23.50;83.70
26964;DHT22;14521;48.148;-1.656;2023-08-30T20:48:58;23.30;83.20
26964;DHT22;14521;48.148;-1.656;2023-08-30T20:52:20;23.40;85.30
26964;DHT22;14521;48.148;-1.656;2023-08-30T20:55:43;23.50;85.50
26964;DHT22;14521;48.148;-1.656;2023-08-30T20:59:06;23.50;85.20
26964;DHT22;14521;48.148;-1.656;2023-08-30T21:02:28;23.50;84.40
26964;DHT22;14521;48.148;-1.656;2023-08-30T21:05:55;23.50;84.10
26964;DHT22;14521;48.148;-1.656;2023-08-30T21:09:18;23.50;83.90
26964;DHT22;14521;48.148;-1.656;2023-08-30T21:12:40;23.50;84.00
26964;DHT22;14521;48.148;-1.656;2023-08-30T21:16:09;23.50;85.20